createdAt,value
2019-03-18T00:01:05.372Z,0.50
2019-03-18T00:03:34.076Z,0.60
2019-03-18T00:06:02.755Z,0.80
2019-03-18T00:08:31.433Z,0.50
2019-03-18T00:10:59.962Z,0.50
2019-03-18T00:13:28.545Z,0.50
2019-03-18T00:15:57.119Z,0.60
2019-03-18T00:18:25.672Z,0.40
2019-03-18T00:20:54.193Z,0.40
2019-03-18T00:23:24.614Z,0.40
2019-03-18T00:25:53.273Z,0.40
2019-03-18T00:28:22.010Z,0.57
2019-03-18T00:30:50.578Z,0.60
2019-03-18T00:33:19.229Z,0.73
2019-03-18T00:35:47.754Z,0.77
2019-03-18T00:38:16.287Z,0.40
2019-03-18T00:40:44.874Z,0.50
2019-03-18T00:43:13.790Z,0.40
2019-03-18T00:45:42.441Z,0.30
2019-03-18T00:48:11.243Z,0.30
2019-03-18T00:50:40.259Z,0.40
2019-03-18T00:53:08.929Z,0.43
2019-03-18T00:55:37.488Z,0.63
2019-03-18T00:58:05.979Z,0.47
2019-03-18T01:00:34.555Z,0.33
2019-03-18T01:03:03.073Z,0.33
2019-03-18T01:05:32.003Z,0.63
2019-03-18T01:08:00.653Z,0.30
2019-03-18T01:10:29.946Z,0.40
2019-03-18T01:12:58.739Z,0.67
2019-03-18T01:15:28.592Z,0.30
2019-03-18T01:17:57.382Z,0.50
2019-03-18T01:20:25.962Z,0.43
2019-03-18T01:22:54.490Z,0.40
2019-03-18T01:25:23.136Z,0.37
2019-03-18T01:27:51.757Z,0.43
2019-03-18T01:30:22.357Z,0.50
2019-03-18T01:32:50.953Z,0.60
2019-03-18T01:35:19.667Z,0.57
2019-03-18T01:37:48.314Z,0.30
2019-03-18T01:40:16.911Z,0.70
2019-03-18T01:42:46.033Z,0.53
2019-03-18T01:45:14.679Z,0.33
2019-03-18T01:47:43.361Z,0.50
2019-03-18T01:50:12.025Z,0.40
2019-03-18T01:52:40.568Z,0.50
2019-03-18T01:55:09.308Z,0.53
2019-03-18T01:57:37.884Z,0.60
2019-03-18T02:00:06.560Z,0.50
2019-03-18T02:02:35.109Z,0.40
2019-03-18T02:05:03.851Z,0.30
2019-03-18T02:07:32.392Z,0.37
2019-03-18T02:10:00.964Z,0.50
2019-03-18T02:12:29.538Z,0.40
2019-03-18T02:14:58.224Z,0.33
2019-03-18T02:17:26.886Z,0.50
2019-03-18T02:19:56.341Z,0.30
2019-03-18T02:22:25.119Z,0.70
2019-03-18T02:24:53.701Z,0.60
2019-03-18T02:27:22.360Z,0.83
2019-03-18T02:29:50.823Z,0.50
2019-03-18T02:32:19.276Z,0.50
2019-03-18T02:34:47.851Z,0.60
2019-03-18T02:37:16.415Z,0.43
2019-03-18T02:39:45.089Z,0.50
2019-03-18T02:42:13.731Z,0.40
2019-03-18T02:44:42.359Z,0.50
2019-03-18T02:47:10.892Z,0.50
2019-03-18T02:49:42.320Z,0.63
2019-03-18T02:52:10.876Z,0.33
2019-03-18T02:54:39.540Z,0.50
2019-03-18T02:57:08.154Z,0.57
2019-03-18T02:59:36.838Z,0.77
2019-03-18T03:02:05.748Z,0.40
2019-03-18T03:04:34.359Z,0.63
2019-03-18T03:07:03.113Z,0.67
2019-03-18T03:09:31.818Z,0.80
2019-03-18T03:12:00.517Z,0.50
2019-03-18T03:14:29.152Z,0.70
2019-03-18T03:16:57.766Z,0.70
2019-03-18T03:19:26.325Z,0.70
2019-03-18T03:21:54.879Z,0.60
2019-03-18T03:24:23.564Z,0.70
2019-03-18T03:26:52.425Z,0.70
2019-03-18T03:29:20.985Z,0.70
2019-03-18T03:31:49.557Z,0.43
2019-03-18T03:34:18.055Z,0.90
2019-03-18T03:36:46.519Z,0.50
2019-03-18T03:39:15.063Z,0.70
2019-03-18T03:41:43.748Z,0.30
2019-03-18T03:44:12.285Z,0.50
2019-03-18T03:46:43.529Z,0.60
2019-03-18T03:49:11.128Z,0.60
2019-03-18T03:51:39.737Z,0.40
2019-03-18T03:54:08.227Z,0.50
2019-03-18T03:56:37.956Z,0.47
2019-03-18T03:59:06.499Z,0.63
2019-03-18T04:01:35.027Z,1.10
2019-03-18T04:04:03.561Z,0.67
2019-03-18T04:06:32.276Z,0.70
2019-03-18T04:09:00.898Z,0.50
2019-03-18T04:11:29.526Z,0.80
2019-03-18T04:13:58.054Z,0.50
2019-03-18T04:16:26.642Z,0.50
2019-03-18T04:18:55.180Z,1.40
2019-03-18T04:21:23.729Z,0.60
2019-03-18T04:23:52.302Z,0.60
2019-03-18T04:26:20.835Z,0.57
2019-03-18T04:28:49.405Z,0.50
2019-03-18T04:31:18.076Z,0.90
2019-03-18T04:33:46.759Z,0.60
2019-03-18T04:36:15.476Z,0.63
2019-03-18T04:38:44.315Z,0.50
2019-03-18T04:41:13.293Z,0.40
2019-03-18T04:43:42.147Z,0.60
2019-03-18T04:46:10.955Z,0.90
2019-03-18T04:48:39.510Z,0.60
2019-03-18T04:51:08.185Z,1.00
2019-03-18T04:53:36.882Z,0.70
2019-03-18T04:56:05.672Z,0.57
2019-03-18T04:58:34.179Z,0.60
2019-03-18T05:01:02.798Z,0.70
2019-03-18T05:03:31.288Z,0.60
2019-03-18T05:05:59.854Z,0.80
2019-03-18T05:08:28.434Z,0.70
2019-03-18T05:10:56.986Z,0.63
2019-03-18T05:13:26.590Z,0.80
2019-03-18T05:15:55.439Z,0.70
2019-03-18T05:18:25.066Z,0.83
2019-03-18T05:20:53.623Z,0.77
2019-03-18T05:23:22.162Z,0.80
2019-03-18T05:25:50.750Z,0.80
2019-03-18T05:28:19.286Z,1.00
2019-03-18T05:30:47.804Z,0.70
2019-03-18T05:33:16.257Z,0.70
2019-03-18T05:35:44.754Z,0.60
2019-03-18T05:38:13.278Z,0.77
2019-03-18T05:40:41.818Z,0.43
2019-03-18T05:43:10.443Z,0.83
2019-03-18T05:45:39.174Z,0.80
2019-03-18T05:48:07.807Z,1.00
2019-03-18T05:50:36.253Z,1.00
2019-03-18T05:53:04.908Z,0.87
2019-03-18T05:55:33.504Z,1.07
2019-03-18T05:58:02.109Z,0.80
2019-03-18T06:00:30.752Z,0.80
2019-03-18T06:02:59.374Z,0.70
2019-03-18T06:05:29.988Z,0.70
2019-03-18T06:07:58.773Z,0.87
2019-03-18T06:10:27.291Z,1.00
2019-03-18T06:12:55.807Z,0.90
2019-03-18T06:15:24.730Z,0.83
2019-03-18T06:17:53.431Z,1.00
2019-03-18T06:20:21.930Z,1.30
2019-03-18T06:22:50.661Z,0.90
2019-03-18T06:25:19.346Z,0.90
2019-03-18T06:27:48.070Z,0.70
2019-03-18T06:30:16.704Z,0.90
2019-03-18T06:32:45.430Z,0.80
2019-03-18T06:35:14.308Z,0.93
2019-03-18T06:37:42.952Z,1.20
2019-03-18T06:40:11.607Z,0.90
2019-03-18T06:42:40.305Z,1.20
2019-03-18T06:45:09.518Z,0.70
2019-03-18T06:47:39.111Z,0.60
2019-03-18T06:50:09.378Z,0.60
2019-03-18T06:52:39.073Z,0.80
2019-03-18T06:55:10.056Z,0.70
2019-03-18T06:57:38.964Z,0.67
2019-03-18T07:00:08.750Z,0.80
2019-03-18T07:02:37.487Z,0.80
2019-03-18T07:05:10.416Z,0.60
2019-03-18T07:07:39.494Z,0.53
2019-03-18T07:10:08.574Z,0.70
2019-03-18T07:12:37.294Z,0.83
2019-03-18T07:15:06.895Z,0.70
2019-03-18T07:17:35.961Z,0.80
2019-03-18T07:20:05.376Z,0.70
2019-03-18T07:22:34.118Z,0.83
2019-03-18T07:25:04.720Z,0.53
2019-03-18T07:27:33.542Z,0.73
2019-03-18T07:30:02.272Z,0.87
2019-03-18T07:32:32.004Z,0.70
2019-03-18T07:35:01.193Z,1.33
2019-03-18T07:37:29.834Z,0.93
2019-03-18T07:39:59.040Z,0.90
2019-03-18T07:42:32.112Z,0.80
2019-03-18T07:45:01.114Z,0.80
2019-03-18T07:47:29.848Z,0.70
2019-03-18T07:49:59.232Z,1.20
2019-03-18T07:52:28.778Z,0.80
2019-03-18T07:54:57.798Z,0.60
2019-03-18T07:57:26.488Z,1.00
2019-03-18T07:59:55.815Z,0.83
2019-03-18T08:02:25.795Z,0.90
2019-03-18T08:04:54.465Z,1.00
2019-03-18T08:07:23.457Z,1.23
2019-03-18T08:09:52.310Z,0.70
2019-03-18T08:12:20.972Z,0.83
2019-03-18T08:14:50.406Z,0.70
2019-03-18T08:17:19.438Z,1.00
2019-03-18T08:19:48.366Z,1.07
2019-03-18T08:22:17.025Z,0.90
2019-03-18T08:24:45.747Z,0.80
2019-03-18T08:27:14.790Z,0.70
2019-03-18T08:29:43.671Z,0.63
2019-03-18T08:32:12.379Z,0.70
2019-03-18T08:34:41.095Z,0.87
2019-03-18T08:37:09.999Z,0.43
2019-03-18T08:39:38.795Z,0.60
2019-03-18T08:42:08.593Z,0.77
2019-03-18T08:44:40.390Z,0.60
2019-03-18T08:47:15.868Z,0.73
2019-03-18T08:49:46.702Z,0.80
2019-03-18T08:52:15.617Z,0.60
2019-03-18T08:54:44.836Z,0.90
2019-03-18T08:57:20.750Z,0.70
2019-03-18T08:59:51.148Z,0.73
2019-03-18T09:02:22.070Z,0.70
2019-03-18T09:04:52.272Z,0.90
2019-03-18T09:07:21.126Z,0.57
2019-03-18T09:09:50.189Z,0.67
2019-03-18T09:12:20.549Z,0.90
2019-03-18T09:14:49.511Z,0.90
2019-03-18T09:17:18.515Z,1.10
2019-03-18T09:19:47.598Z,1.53
2019-03-18T09:22:20.664Z,0.77
2019-03-18T09:24:49.697Z,0.87
2019-03-18T09:27:18.758Z,0.90
2019-03-18T09:29:49.856Z,1.20
2019-03-18T09:32:18.946Z,0.60
2019-03-18T09:34:50.024Z,0.80
2019-03-18T09:37:19.979Z,0.60
2019-03-18T09:39:50.748Z,0.90
2019-03-18T09:42:20.422Z,0.97
2019-03-18T09:44:51.440Z,0.90
2019-03-18T09:47:22.839Z,0.80
2019-03-18T09:49:51.838Z,1.00
2019-03-18T09:52:22.562Z,1.20
2019-03-18T09:54:51.623Z,0.90
2019-03-18T09:57:26.296Z,1.10
2019-03-18T09:59:52.826Z,1.07
2019-03-18T10:02:21.566Z,1.37
2019-03-18T10:04:50.680Z,1.20
2019-03-18T10:07:22.027Z,0.97
2019-03-18T10:09:51.896Z,0.43
2019-03-18T10:12:21.070Z,0.47
2019-03-18T10:14:49.991Z,0.50
2019-03-18T10:17:20.483Z,0.73
2019-03-18T10:19:53.661Z,0.40
2019-03-18T10:22:25.267Z,0.50
2019-03-18T10:24:57.577Z,0.50
2019-03-18T10:27:29.868Z,0.40
2019-03-18T10:30:00.378Z,0.57
2019-03-18T10:32:29.354Z,0.50
2019-03-18T10:34:58.374Z,0.37
2019-03-18T10:37:27.721Z,0.43
2019-03-18T10:39:56.713Z,0.47
2019-03-18T10:42:25.936Z,0.47
2019-03-18T10:44:55.031Z,0.43
2019-03-18T10:47:27.231Z,0.43
2019-03-18T10:49:56.609Z,0.60
2019-03-18T10:52:25.654Z,0.30
2019-03-18T10:54:59.977Z,0.40
2019-03-18T10:57:29.037Z,0.53
2019-03-18T11:00:02.673Z,0.47
2019-03-18T11:02:32.170Z,0.73
2019-03-18T11:05:02.595Z,0.60
2019-03-18T11:07:33.634Z,0.40
2019-03-18T11:10:02.674Z,0.80
2019-03-18T11:12:31.628Z,0.40
2019-03-18T11:15:00.579Z,0.60
2019-03-18T11:17:29.545Z,0.50
2019-03-18T11:19:59.191Z,0.57
2019-03-18T11:22:30.358Z,0.40
2019-03-18T11:24:59.310Z,0.67
2019-03-18T11:27:29.476Z,0.43
2019-03-18T11:29:58.286Z,0.40
2019-03-18T11:32:27.269Z,0.60
2019-03-18T11:34:58.007Z,0.60
2019-03-18T11:37:27.117Z,0.40
2019-03-18T11:39:57.354Z,0.50
2019-03-18T11:42:27.693Z,0.67
2019-03-18T11:44:56.467Z,0.50
2019-03-18T11:47:25.319Z,0.60
2019-03-18T11:50:10.408Z,0.47
2019-03-18T11:52:32.799Z,0.60
2019-03-18T11:55:01.697Z,0.57
2019-03-18T11:57:31.375Z,0.70
2019-03-18T12:00:01.902Z,0.63
2019-03-18T12:02:39.154Z,0.60
2019-03-18T12:05:18.609Z,0.70
2019-03-18T12:07:50.276Z,1.00
2019-03-18T12:10:20.921Z,0.47
2019-03-18T12:12:50.756Z,0.50
2019-03-18T12:15:25.663Z,0.40
2019-03-18T12:18:02.676Z,0.40
2019-03-18T12:20:33.375Z,0.33
2019-03-18T12:23:03.550Z,0.40
2019-03-18T12:25:36.945Z,0.50
2019-03-18T12:28:06.857Z,0.77
2019-03-18T12:30:36.109Z,0.97
2019-03-18T12:33:11.207Z,0.50
2019-03-18T12:35:40.080Z,0.57
2019-03-18T12:38:11.502Z,0.70
2019-03-18T12:40:40.579Z,0.77
2019-03-18T12:43:09.390Z,0.43
2019-03-18T12:45:38.271Z,0.57
2019-03-18T12:48:07.229Z,0.80
2019-03-18T12:50:54.572Z,0.60
2019-03-18T12:53:06.501Z,0.40
2019-03-18T12:55:35.314Z,0.50
2019-03-18T12:58:04.027Z,0.50
2019-03-18T13:00:32.918Z,0.53
2019-03-18T13:03:01.746Z,0.50
2019-03-18T13:05:33.559Z,0.40
2019-03-18T13:08:02.525Z,0.40
2019-03-18T13:10:31.443Z,1.00
2019-03-18T13:13:00.418Z,0.60
2019-03-18T13:15:29.174Z,0.60
2019-03-18T13:17:58.022Z,0.63
2019-03-18T13:20:27.088Z,0.50
2019-03-18T13:22:55.995Z,0.70
2019-03-18T13:25:24.905Z,0.43
2019-03-18T13:27:53.891Z,0.40
2019-03-18T13:30:22.502Z,0.90
2019-03-18T13:32:51.408Z,0.50
2019-03-18T13:35:20.799Z,0.70
2019-03-18T13:37:55.672Z,0.60
2019-03-18T13:40:24.618Z,0.30
2019-03-18T13:42:53.499Z,0.87
2019-03-18T13:45:24.005Z,0.50
2019-03-18T13:47:53.436Z,0.53
2019-03-18T13:50:22.595Z,0.60
2019-03-18T13:52:51.825Z,0.60
2019-03-18T13:55:21.034Z,0.50
2019-03-18T13:57:49.763Z,0.50
2019-03-18T14:00:19.453Z,0.70
2019-03-18T14:02:48.174Z,0.80
2019-03-18T14:05:17.095Z,0.70
2019-03-18T14:07:59.502Z,0.60
2019-03-18T14:10:17.619Z,0.60
2019-03-18T14:12:46.477Z,0.80
2019-03-18T14:15:17.374Z,0.63
2019-03-18T14:17:46.081Z,0.60
2019-03-18T14:20:14.905Z,0.60
2019-03-18T14:22:43.456Z,0.90
2019-03-18T14:25:12.081Z,0.60
2019-03-18T14:27:40.721Z,0.40
2019-03-18T14:30:13.488Z,0.60
2019-03-18T14:32:46.043Z,0.60
2019-03-18T14:35:14.776Z,0.50
2019-03-18T14:37:45.748Z,0.50
2019-03-18T14:40:17.995Z,0.53
2019-03-18T14:42:48.487Z,0.70
2019-03-18T14:45:17.377Z,0.60
2019-03-18T14:47:46.102Z,0.70
2019-03-18T14:50:17.764Z,0.50
2019-03-18T14:52:46.817Z,0.50
2019-03-18T14:55:15.823Z,0.50
2019-03-18T14:57:44.506Z,0.40
2019-03-18T15:00:18.859Z,0.60
2019-03-18T15:02:47.557Z,0.60
2019-03-18T15:05:16.295Z,0.70
2019-03-18T15:07:44.906Z,0.83
2019-03-18T15:10:13.586Z,0.60
2019-03-18T15:12:42.261Z,0.90
2019-03-18T15:15:12.350Z,0.80
2019-03-18T15:17:40.931Z,0.80
2019-03-18T15:20:12.179Z,0.60
2019-03-18T15:22:40.114Z,0.50
2019-03-18T15:25:10.358Z,0.70
2019-03-18T15:27:38.957Z,0.60
2019-03-18T15:30:08.765Z,0.80
2019-03-18T15:32:37.598Z,0.90
2019-03-18T15:35:06.895Z,0.90
2019-03-18T15:37:35.502Z,0.50
2019-03-18T15:40:07.957Z,0.73
2019-03-18T15:42:43.147Z,0.80
2019-03-18T15:45:14.247Z,0.63
2019-03-18T15:47:42.973Z,1.00
2019-03-18T15:50:13.229Z,1.03
2019-03-18T15:52:45.336Z,0.83
2019-03-18T15:55:13.878Z,0.60
2019-03-18T15:57:42.590Z,0.70
2019-03-18T16:00:13.726Z,1.10
2019-03-18T16:02:48.540Z,0.97
2019-03-18T16:05:18.029Z,0.83
2019-03-18T16:07:52.569Z,0.87
2019-03-18T16:10:21.343Z,1.00
2019-03-18T16:12:54.961Z,0.70
2019-03-18T16:15:24.722Z,1.00
2019-03-18T16:17:53.531Z,0.83
2019-03-18T16:20:25.795Z,0.90
2019-03-18T16:22:55.956Z,0.87
2019-03-18T16:25:24.884Z,1.17
2019-03-18T16:27:53.558Z,1.00
2019-03-18T16:30:22.190Z,1.40
2019-03-18T16:32:50.785Z,0.93
2019-03-18T16:35:19.395Z,0.77
2019-03-18T16:37:47.893Z,0.90
2019-03-18T16:40:16.863Z,0.70
2019-03-18T16:42:45.514Z,1.00
2019-03-18T16:45:14.370Z,0.73
2019-03-18T16:47:50.847Z,0.87
2019-03-18T16:50:19.391Z,0.70
2019-03-18T16:52:48.072Z,0.80
2019-03-18T16:55:16.602Z,1.10
2019-03-18T16:57:45.566Z,1.20
2019-03-18T17:00:15.174Z,0.70
2019-03-18T17:02:44.329Z,0.97
2019-03-18T17:05:12.881Z,0.70
2019-03-18T17:07:41.494Z,0.93
2019-03-18T17:10:10.238Z,0.70
2019-03-18T17:12:38.776Z,0.87
2019-03-18T17:15:07.607Z,0.60
2019-03-18T17:17:36.255Z,0.80
2019-03-18T17:20:05.638Z,1.07
2019-03-18T17:22:34.193Z,0.67
2019-03-18T17:25:02.889Z,1.10
2019-03-18T17:27:31.366Z,0.90
2019-03-18T21:39:40.875Z,1.50
2019-03-18T21:45:46.509Z,1.30
2019-03-18T21:48:19.388Z,1.20
2019-03-18T21:50:50.727Z,1.60
2019-03-18T21:53:22.172Z,1.40
2019-03-18T21:55:52.458Z,1.20
2019-03-18T21:58:24.480Z,1.40
2019-03-18T22:00:53.599Z,1.23
2019-03-18T22:03:28.824Z,1.47
2019-03-18T22:05:58.030Z,1.47
2019-03-18T22:08:34.098Z,1.83
2019-03-18T22:11:11.176Z,1.50
2019-03-18T22:13:42.263Z,1.00
2019-03-18T22:16:13.200Z,1.50
2019-03-18T22:18:43.333Z,1.30
2019-03-18T22:21:13.427Z,1.30
2019-03-18T22:23:43.552Z,0.87
2019-03-18T22:26:14.633Z,1.60
2019-03-18T22:28:43.747Z,1.67
2019-03-18T22:31:14.934Z,1.37
2019-03-18T22:33:44.983Z,1.97
2019-03-18T22:36:14.170Z,1.53
2019-03-18T22:38:44.185Z,1.63
2019-03-18T22:41:16.597Z,1.70
2019-03-18T22:43:45.737Z,1.57
2019-03-18T22:46:16.257Z,1.40
2019-03-18T22:48:52.407Z,1.77
2019-03-18T22:51:21.579Z,1.50
2019-03-18T22:53:52.664Z,1.50
2019-03-18T22:56:21.649Z,1.50
2019-03-18T22:58:50.682Z,1.43
2019-03-18T23:01:22.029Z,1.50
2019-03-18T23:03:52.153Z,1.20
2019-03-18T23:06:21.004Z,1.00
2019-03-18T23:08:49.960Z,1.57
2019-03-18T23:11:19.023Z,1.93
2019-03-18T23:13:47.990Z,1.53
2019-03-18T23:16:17.013Z,1.30
2019-03-18T23:18:45.950Z,1.13
2019-03-18T23:21:15.054Z,1.67
2019-03-18T23:23:43.934Z,1.20
2019-03-18T23:26:12.796Z,1.60
2019-03-18T23:28:41.781Z,1.47
2019-03-18T23:31:10.995Z,2.00
2019-03-18T23:33:40.057Z,2.07
2019-03-18T23:36:09.134Z,1.17
2019-03-18T23:38:38.004Z,1.60
2019-03-18T23:41:07.005Z,1.60
2019-03-18T23:43:35.881Z,1.73
2019-03-18T23:46:04.805Z,1.80
2019-03-18T23:48:33.801Z,1.93
2019-03-18T23:51:02.685Z,1.90
2019-03-18T23:53:31.612Z,1.67
2019-03-18T23:56:01.514Z,2.27
2019-03-18T23:58:30.442Z,2.00
